createdAt,value
2019-05-25T01:45:00.969Z,0.1
2019-05-25T01:47:00.686Z,0.2
2019-05-25T01:48:00.715Z,0.3
2019-05-25T01:50:00.836Z,0.4
2019-05-25T01:51:00.756Z,0.5
2019-05-25T01:53:00.840Z,0.6
2019-05-25T01:54:00.689Z,0.7
2019-05-25T01:56:00.839Z,0.8
2019-05-25T01:57:00.687Z,0.9
2019-05-25T01:59:00.715Z,1.0
2019-05-25T02:00:00.691Z,1.0
2019-05-25T02:01:00.840Z,1.1
2019-05-25T02:03:00.782Z,1.2
2019-05-25T02:04:00.707Z,1.3
2019-05-25T02:05:00.688Z,1.4
2019-05-25T02:06:01.168Z,1.5
2019-05-25T02:07:00.689Z,1.7
2019-05-25T02:08:00.706Z,1.9
2019-05-25T02:09:00.690Z,2.1
2019-05-25T02:10:00.692Z,2.3
2019-05-25T02:11:00.976Z,2.7
2019-05-25T02:12:00.688Z,3.0
2019-05-25T02:13:00.694Z,3.4
2019-05-25T02:14:00.715Z,3.9
2019-05-25T02:15:00.694Z,4.3
2019-05-25T02:16:00.845Z,4.7
2019-05-25T02:17:01.712Z,5.2
2019-05-25T02:18:00.695Z,5.7
2019-05-25T02:19:00.695Z,6.4
2019-05-25T02:20:00.744Z,7.1
2019-05-25T02:21:00.850Z,7.8
2019-05-25T02:22:00.697Z,8.6
2019-05-25T02:23:00.699Z,9.5
2019-05-25T02:24:00.712Z,10.5
2019-05-25T02:25:16.223Z,11.6
2019-05-25T02:26:00.825Z,12.9
2019-05-25T02:27:00.699Z,14.6
2019-05-25T02:28:00.698Z,16.3
2019-05-25T02:29:00.698Z,18.1
2019-05-25T02:30:00.703Z,20.3
2019-05-25T02:31:00.847Z,22.9
2019-05-25T02:32:00.697Z,25.8
2019-05-25T02:33:00.703Z,29.1
2019-05-25T02:34:00.697Z,32.7
2019-05-25T02:35:00.696Z,37.0
2019-05-25T02:36:00.903Z,42.4
2019-05-25T02:37:00.703Z,49.2
2019-05-25T02:38:00.707Z,57.2
2019-05-25T02:39:00.700Z,66.0
2019-05-25T02:40:00.707Z,75.1
2019-05-25T02:41:00.849Z,84.5
2019-05-25T02:42:00.701Z,94.7
2019-05-25T02:43:00.832Z,105.3
2019-05-25T02:44:00.702Z,116.0
2019-05-25T02:45:00.709Z,127.7
2019-05-25T02:46:00.864Z,140.7
2019-05-25T02:47:00.703Z,156.1
2019-05-25T02:48:00.709Z,172.7
2019-05-25T02:49:00.706Z,190.5
2019-05-25T02:50:00.711Z,210.4
2019-05-25T02:51:01.982Z,232.0
2019-05-25T02:52:00.704Z,254.9
2019-05-25T02:53:00.708Z,278.8
2019-05-25T02:54:00.707Z,305.4
2019-05-25T02:55:00.714Z,333.5
2019-05-25T02:56:00.893Z,360.2
2019-05-25T02:57:00.708Z,385.8
2019-05-25T02:58:00.715Z,412.2
2019-05-25T02:59:00.710Z,439.6
2019-05-25T03:00:00.711Z,466.5
2019-05-25T03:01:00.901Z,492.7
2019-05-25T03:02:00.708Z,518.9
2019-05-25T03:03:00.710Z,545.7
2019-05-25T03:04:00.708Z,572.4
2019-05-25T03:05:00.710Z,598.1
2019-05-25T03:06:00.891Z,625.0
2019-05-25T03:07:01.209Z,654.4
2019-05-25T03:08:00.711Z,684.7
2019-05-25T03:09:00.804Z,719.3
2019-05-25T03:10:00.711Z,761.5
2019-05-25T03:11:00.889Z,816.1
2019-05-25T03:12:00.713Z,876.3
2019-05-25T03:13:00.713Z,937.5
2019-05-25T03:14:00.967Z,999.9
2019-05-25T03:15:00.772Z,1069.1
2019-05-25T03:16:01.684Z,1160.0
2019-05-25T03:17:01.652Z,1258.0
2019-05-25T03:18:00.712Z,1358.5
2019-05-25T03:19:00.715Z,1461.3
2019-05-25T03:20:00.713Z,1558.2
2019-05-25T03:21:00.918Z,1648.9
2019-05-25T03:22:00.742Z,1739.8
2019-05-25T03:23:00.713Z,1833.7
2019-05-25T03:24:00.711Z,1928.5
2019-05-25T03:25:00.715Z,1998.6
2019-05-25T03:26:00.859Z,2053.5
2019-05-25T03:27:00.751Z,2110.4
2019-05-25T03:28:00.714Z,2174.5
2019-05-25T03:29:00.711Z,2247.3
2019-05-25T03:30:00.711Z,2334.7
2019-05-25T03:31:00.920Z,2418.7
2019-05-25T03:32:00.749Z,2522.7
2019-05-25T03:33:00.711Z,2636.9
2019-05-25T03:34:00.711Z,2759.1
2019-05-25T03:35:00.712Z,2884.4
2019-05-25T03:36:00.927Z,3031.2
2019-05-25T03:37:00.745Z,3193.4
2019-05-25T03:38:00.714Z,3382.7
2019-05-25T03:39:00.711Z,3570.6
2019-05-25T03:40:00.717Z,3773.2
2019-05-25T03:41:00.866Z,3993.7
2019-05-25T03:42:00.780Z,4235.3
2019-05-25T03:43:00.721Z,4488.1
2019-05-25T03:44:00.728Z,4758.7
2019-05-25T03:45:00.715Z,5042.0
2019-05-25T03:46:00.862Z,5338.2
2019-05-25T03:47:00.748Z,5596.1
2019-05-25T03:48:00.716Z,5817.2
2019-05-25T03:49:00.721Z,6034.8
2019-05-25T03:50:02.330Z,6319.9
2019-05-25T03:51:00.865Z,6594.2
2019-05-25T03:52:00.751Z,6816.8
2019-05-25T03:53:00.720Z,6973.9
2019-05-25T03:54:00.726Z,7154.8
2019-05-25T03:55:00.722Z,7396.9
2019-05-25T03:56:05.532Z,7665.1
2019-05-25T03:57:00.762Z,7898.6
2019-05-25T03:58:00.725Z,8087.1
2019-05-25T03:59:00.728Z,8262.3
2019-05-25T04:00:00.727Z,8439.9
2019-05-25T04:01:00.872Z,8595.4
2019-05-25T04:02:00.748Z,8787.9
2019-05-25T04:03:00.726Z,9050.6
2019-05-25T04:04:00.755Z,9349.3
2019-05-25T04:05:00.725Z,9504.8
2019-05-25T04:06:00.870Z,9617.4
2019-05-25T04:07:00.727Z,9789.1
2019-05-25T04:08:00.728Z,10071.1
2019-05-25T04:09:00.747Z,10388.6
2019-05-25T04:10:00.726Z,10574.1
2019-05-25T04:11:00.883Z,10733.0
2019-05-25T04:12:00.725Z,10931.9
2019-05-25T04:13:00.725Z,11104.0
2019-05-25T04:14:00.754Z,11154.0
2019-05-25T04:15:03.155Z,11170.6
2019-05-25T04:16:01.640Z,11405.2
2019-05-25T04:17:00.728Z,11718.5
2019-05-25T04:18:00.803Z,11881.7
2019-05-25T04:19:00.731Z,12043.1
2019-05-25T04:20:00.726Z,12354.2
2019-05-25T04:21:00.889Z,12619.5
2019-05-25T04:22:00.728Z,12850.0
2019-05-25T04:23:00.750Z,13038.9
2019-05-25T04:24:00.977Z,13138.5
2019-05-25T04:25:00.729Z,13353.5
2019-05-25T04:26:00.967Z,13536.1
2019-05-25T04:27:00.730Z,13565.5
2019-05-25T04:28:00.752Z,13615.3
2019-05-25T04:29:00.731Z,13809.7
2019-05-25T04:30:00.730Z,14041.3
2019-05-25T04:31:00.876Z,14138.3
2019-05-25T04:32:00.739Z,14197.7
2019-05-25T04:33:00.751Z,14344.3
2019-05-25T04:34:00.733Z,14442.5
2019-05-25T04:35:00.733Z,14442.1
2019-05-25T04:36:00.903Z,14475.9
2019-05-25T04:37:00.734Z,14521.5
2019-05-25T04:38:00.755Z,14595.5
2019-05-25T04:39:00.730Z,14795.7
2019-05-25T04:40:00.734Z,14934.9
2019-05-25T04:41:00.910Z,15039.3
2019-05-25T04:42:00.733Z,15361.3
2019-05-25T04:43:00.761Z,15621.6
2019-05-25T04:44:00.734Z,15800.1
2019-05-25T04:45:00.731Z,15984.8
2019-05-25T04:46:00.892Z,16078.3
2019-05-25T04:47:00.732Z,16112.1
2019-05-25T04:48:00.758Z,16178.3
2019-05-25T04:49:00.738Z,16329.7
2019-05-25T04:50:00.732Z,16659.2
2019-05-25T04:51:00.880Z,16999.8
2019-05-25T04:52:00.735Z,17270.7
2019-05-25T04:53:00.765Z,17427.8
2019-05-25T04:54:00.739Z,17522.5
2019-05-25T04:55:00.737Z,17654.9
2019-05-25T04:56:00.892Z,17799.7
2019-05-25T04:57:00.736Z,17799.4
2019-05-25T04:58:00.767Z,18007.9
2019-05-25T04:59:02.028Z,18247.0
2019-05-25T05:00:00.743Z,18368.5
2019-05-25T05:01:00.888Z,18505.8
2019-05-25T05:02:00.739Z,18645.5
2019-05-25T05:03:00.762Z,18797.4
2019-05-25T05:04:00.945Z,18884.3
2019-05-25T05:05:00.742Z,18765.8
2019-05-25T05:06:00.893Z,18803.1
2019-05-25T05:07:00.939Z,18903.0
2019-05-25T05:08:00.771Z,19089.5
2019-05-25T05:09:00.741Z,19220.7
2019-05-25T05:10:02.881Z,19330.6
2019-05-25T05:11:00.894Z,19475.1
2019-05-25T05:12:00.743Z,19648.1
2019-05-25T05:13:00.772Z,19813.3
2019-05-25T05:14:00.739Z,19892.5
2019-05-25T05:15:00.739Z,20266.3
2019-05-25T05:16:00.894Z,20788.5
2019-05-25T05:17:00.737Z,21250.1
2019-05-25T05:18:00.774Z,21662.9
2019-05-25T05:19:00.748Z,22123.9
2019-05-25T05:20:00.743Z,22633.7
2019-05-25T05:21:00.896Z,22930.4
2019-05-25T05:22:00.738Z,23081.9
2019-05-25T05:23:00.770Z,23092.8
2019-05-25T05:24:00.739Z,23184.4
2019-05-25T05:25:00.743Z,23359.3
2019-05-25T05:26:00.887Z,23516.1
2019-05-25T05:27:00.785Z,23694.9
2019-05-25T05:28:00.773Z,23844.2
2019-05-25T05:29:00.740Z,24180.1
2019-05-25T05:30:00.742Z,24278.5
2019-05-25T05:31:00.894Z,24133.2
2019-05-25T05:32:00.741Z,24087.3
2019-05-25T05:33:00.777Z,24092.9
2019-05-25T05:34:00.744Z,24123.2
2019-05-25T05:35:00.785Z,24103.1
2019-05-25T05:36:01.199Z,24138.5
2019-05-25T05:37:00.742Z,24487.7
2019-05-25T05:38:00.775Z,25202.8
2019-05-25T05:39:00.744Z,26061.7
2019-05-25T05:40:00.744Z,26595.9
2019-05-25T05:41:01.088Z,27116.8
2019-05-25T05:42:00.744Z,27541.7
2019-05-25T05:43:00.779Z,27766.9
2019-05-25T05:44:00.744Z,27928.7
2019-05-25T05:45:00.747Z,27984.9
2019-05-25T05:46:00.898Z,28066.7
2019-05-25T05:47:00.759Z,28079.3
2019-05-25T05:48:00.782Z,28197.5
2019-05-25T05:49:00.748Z,28340.1
2019-05-25T05:50:00.759Z,28458.6
2019-05-25T05:51:00.900Z,29020.3
2019-05-25T05:52:01.046Z,29488.2
2019-05-25T05:53:00.780Z,29634.9
2019-05-25T05:54:00.748Z,29579.1
2019-05-25T05:55:00.751Z,29831.7
2019-05-25T05:56:00.960Z,30144.7
2019-05-25T05:57:11.483Z,30523.7
2019-05-25T05:58:00.783Z,31164.3
2019-05-25T05:59:00.753Z,31796.7
2019-05-25T06:00:00.752Z,32640.3
2019-05-25T06:01:00.902Z,33423.9
2019-05-25T06:02:00.757Z,34214.3
2019-05-25T06:03:00.777Z,35016.9
2019-05-25T06:04:00.751Z,35688.0
2019-05-25T06:05:00.757Z,36479.5
2019-05-25T06:06:00.990Z,36765.1
2019-05-25T06:07:00.757Z,37231.9
2019-05-25T06:08:00.761Z,38263.2
2019-05-25T06:09:00.758Z,39698.6
2019-05-25T06:10:00.756Z,41226.0
2019-05-25T06:11:00.993Z,42389.5
2019-05-25T06:12:00.763Z,43319.7
2019-05-25T06:13:00.759Z,44193.5
2019-05-25T06:14:00.758Z,45073.6
2019-05-25T06:15:01.026Z,45921.4
2019-05-25T06:16:00.906Z,47165.7
2019-05-25T06:17:00.764Z,48732.7
2019-05-25T06:18:00.757Z,50086.8
2019-05-25T06:19:00.758Z,50946.7
2019-05-25T06:20:00.787Z,51496.4
2019-05-25T06:21:02.107Z,52010.7
2019-05-25T06:22:00.764Z,52356.1
2019-05-25T06:23:00.762Z,52479.5
2019-05-25T06:24:00.763Z,52426.1
2019-05-25T06:25:00.791Z,52461.5
2019-05-25T06:26:00.979Z,52612.2
2019-05-25T06:27:00.768Z,53385.8
2019-05-25T06:28:00.762Z,54325.5
2019-05-25T06:29:00.768Z,55252.5
2019-05-25T06:30:00.785Z,55794.3
2019-05-25T06:31:00.912Z,56369.9
2019-05-25T06:32:00.762Z,56709.6
2019-05-25T06:33:00.760Z,56961.3
2019-05-25T06:34:00.764Z,57607.9
2019-05-25T06:35:00.793Z,58512.6
2019-05-25T06:36:00.930Z,59538.4
2019-05-25T06:37:00.765Z,60734.2
2019-05-25T06:38:00.763Z,61575.6
2019-05-25T06:39:00.769Z,62225.8
2019-05-25T06:40:00.792Z,62692.7
2019-05-25T06:41:01.135Z,63385.5
2019-05-25T06:42:00.766Z,63467.1
2019-05-25T06:43:00.764Z,63360.0
2019-05-25T06:44:00.787Z,63429.1
2019-05-25T06:45:00.766Z,63823.1
2019-05-25T06:46:01.538Z,63898.6
2019-05-25T06:48:00.767Z,64048.9
2019-05-25T06:49:01.055Z,64318.3
2019-05-25T06:50:00.771Z,64598.0
2019-05-25T06:51:00.918Z,64891.2
2019-05-25T06:52:00.778Z,64764.7
2019-05-25T06:53:00.776Z,64675.1
2019-05-25T06:54:01.137Z,64739.0
2019-05-25T06:57:00.924Z,64986.9
2019-05-25T06:58:00.771Z,65172.9
2019-05-25T07:00:00.795Z,65172.9
2019-05-25T07:07:00.985Z,65133.3
2019-05-25T07:08:00.774Z,65035.7
2019-05-25T07:09:00.775Z,64941.2
2019-05-25T07:10:02.106Z,64853.3
2019-05-25T07:11:00.772Z,64431.8
2019-05-25T07:12:00.930Z,63806.3
2019-05-25T07:13:00.779Z,62955.8
2019-05-25T07:14:00.804Z,61942.5
2019-05-25T07:15:00.773Z,61023.1
2019-05-25T07:16:00.808Z,59833.0
2019-05-25T07:17:00.933Z,58627.5
2019-05-25T07:18:00.776Z,58030.1
2019-05-25T07:20:00.774Z,57733.3
2019-05-25T07:21:00.806Z,57139.1
2019-05-25T07:22:00.932Z,56596.5
2019-05-25T07:23:00.778Z,56500.7
2019-05-25T07:24:00.779Z,56595.1
2019-05-25T07:25:00.977Z,56683.0
2019-05-25T07:26:00.828Z,57104.5
2019-05-25T07:27:00.928Z,57730.0
2019-05-25T07:28:00.778Z,58580.5
2019-05-25T07:29:00.785Z,59593.9
2019-05-25T07:30:00.780Z,60513.2
2019-05-25T07:31:00.809Z,61703.3
2019-05-25T07:32:00.929Z,62908.8
2019-05-25T07:33:00.785Z,63506.3
2019-05-25T07:35:00.786Z,63803.0
2019-05-25T07:36:00.808Z,64397.2
2019-05-25T07:37:00.947Z,65143.9
2019-05-25T07:38:00.778Z,65535.0
2019-05-25T07:45:01.056Z,65535.0
2019-05-25T08:00:00.952Z,65535.0
2019-05-25T08:15:01.006Z,65535.0
2019-05-25T08:30:00.956Z,65535.0
2019-05-25T08:45:01.014Z,65535.0
2019-05-25T09:00:01.016Z,65535.0
2019-05-25T09:15:01.027Z,65535.0
2019-05-25T09:30:01.029Z,65535.0
2019-05-25T09:45:03.387Z,65535.0
2019-05-25T10:00:00.980Z,65535.0
2019-05-25T10:15:01.043Z,65535.0
2019-05-25T10:30:00.980Z,65535.0
2019-05-25T10:45:01.073Z,65535.0
2019-05-25T11:00:00.976Z,65535.0
2019-05-25T11:15:01.051Z,65535.0
2019-05-25T11:30:08.804Z,65535.0
2019-05-25T11:45:01.207Z,65535.0
2019-05-25T12:00:01.003Z,65535.0
2019-05-25T12:15:01.199Z,65535.0
2019-05-25T12:30:01.024Z,65535.0
2019-05-25T12:45:01.176Z,65535.0
2019-05-25T13:00:14.576Z,65535.0
2019-05-25T13:15:06.099Z,65535.0
2019-05-25T13:30:03.159Z,65535.0
2019-05-25T13:45:01.076Z,65535.0
2019-05-25T14:00:01.492Z,65535.0
2019-05-25T14:15:01.039Z,65535.0
2019-05-25T14:30:01.102Z,65535.0
2019-05-25T14:45:01.156Z,65535.0
2019-05-25T15:00:01.040Z,65535.0
2019-05-25T15:15:01.499Z,65535.0
2019-05-25T15:30:01.032Z,65535.0
2019-05-25T15:45:01.096Z,65535.0
2019-05-25T16:00:01.116Z,65535.0
2019-05-25T16:14:07.666Z,65111.0
2019-05-25T16:15:00.970Z,64345.7
2019-05-25T16:16:00.900Z,63413.0
2019-05-25T16:17:00.901Z,62568.2
2019-05-25T16:18:00.931Z,61777.1
2019-05-25T16:19:01.111Z,60671.1
2019-05-25T16:20:00.901Z,59387.4
2019-05-25T16:21:00.901Z,58272.3
2019-05-25T16:22:01.043Z,57272.3
2019-05-25T16:23:00.932Z,56290.1
2019-05-25T16:24:01.107Z,55603.2
2019-05-25T16:25:00.905Z,54901.9
2019-05-25T16:26:00.905Z,53944.1
2019-05-25T16:27:00.904Z,53143.2
2019-05-25T16:28:00.946Z,52344.6
2019-05-25T16:29:01.076Z,51852.4
2019-05-25T16:30:00.901Z,51696.9
2019-05-25T16:31:00.906Z,51604.8
2019-05-25T16:32:00.903Z,51276.9
2019-05-25T16:33:11.377Z,50794.8
2019-05-25T16:34:01.057Z,50639.0
2019-05-25T16:35:00.914Z,50738.7
2019-05-25T16:36:00.907Z,50723.5
2019-05-25T16:37:01.033Z,50583.6
2019-05-25T16:38:01.135Z,50464.1
2019-05-25T16:39:01.103Z,50080.0
2019-05-25T16:40:00.918Z,49889.5
2019-05-25T16:41:00.928Z,50209.1
2019-05-25T16:42:00.913Z,50435.2
2019-05-25T16:43:00.910Z,50521.4
2019-05-25T16:44:01.094Z,50567.9
2019-05-25T16:45:05.175Z,50222.6
2019-05-25T16:46:00.910Z,49723.5
2019-05-25T16:47:00.909Z,49095.7
2019-05-25T16:48:00.913Z,48353.1
2019-05-25T16:49:02.141Z,47712.7
2019-05-25T16:50:00.909Z,46877.3
2019-05-25T16:51:00.911Z,45891.0
2019-05-25T16:52:00.917Z,44661.9
2019-05-25T16:53:00.916Z,43452.5
2019-05-25T16:54:01.058Z,42199.0
2019-05-25T16:55:00.918Z,40673.1
2019-05-25T16:56:00.912Z,38845.1
2019-05-25T16:57:00.913Z,36826.1
2019-05-25T16:58:00.910Z,34911.1
2019-05-25T16:59:01.060Z,33058.3
2019-05-25T17:00:00.916Z,31520.3
2019-05-25T17:01:00.911Z,30235.9
2019-05-25T17:02:00.983Z,29408.9
2019-05-25T17:03:00.910Z,29157.4
2019-05-25T17:04:01.057Z,29019.9
2019-05-25T17:05:00.916Z,28950.5
2019-05-25T17:06:00.990Z,28963.7
2019-05-25T17:07:00.918Z,29368.9
2019-05-25T17:08:00.942Z,29901.9
2019-05-25T17:09:01.065Z,30903.3
2019-05-25T17:10:00.917Z,32500.9
2019-05-25T17:11:00.915Z,34257.7
2019-05-25T17:12:00.942Z,36245.8
2019-05-25T17:13:00.936Z,38654.3
2019-05-25T17:14:01.127Z,41248.9
2019-05-25T17:15:00.919Z,43434.2
2019-05-25T17:16:00.914Z,45285.3
2019-05-25T17:17:00.915Z,46762.7
2019-05-25T17:18:04.516Z,47685.6
2019-05-25T17:19:01.061Z,48100.6
2019-05-25T17:20:00.918Z,48294.5
2019-05-25T17:21:00.915Z,48307.8
2019-05-25T17:22:01.409Z,47958.7
2019-05-25T17:23:00.952Z,47224.9
2019-05-25T17:24:01.073Z,45926.1
2019-05-25T17:25:00.923Z,43995.9
2019-05-25T17:26:00.918Z,41800.3
2019-05-25T17:27:01.006Z,39379.5
2019-05-25T17:28:00.948Z,36508.5
2019-05-25T17:29:01.135Z,33555.8
2019-05-25T17:30:00.920Z,31143.5
2019-05-25T17:31:00.922Z,28986.1
2019-05-25T17:32:00.919Z,27072.1
2019-05-25T17:33:00.949Z,25650.5
2019-05-25T17:34:01.091Z,24809.4
2019-05-25T17:35:00.919Z,24318.7
2019-05-25T17:36:00.921Z,24262.1
2019-05-25T17:37:00.923Z,24476.0
2019-05-25T17:38:00.953Z,25038.8
2019-05-25T17:39:01.096Z,26089.6
2019-05-25T17:40:00.931Z,27524.1
2019-05-25T17:41:00.918Z,28998.3
2019-05-25T17:42:00.921Z,30542.5
2019-05-25T17:43:00.945Z,31919.2
2019-05-25T17:44:01.071Z,33022.7
2019-05-25T17:45:00.924Z,33946.2
2019-05-25T17:46:00.921Z,34797.0
2019-05-25T17:47:00.923Z,35309.7
2019-05-25T17:48:00.945Z,35375.2
2019-05-25T17:49:01.070Z,35063.3
2019-05-25T17:50:00.921Z,34606.9
2019-05-25T17:51:00.965Z,33852.2
2019-05-25T17:52:00.944Z,32970.9
2019-05-25T17:53:00.944Z,31887.2
2019-05-25T17:54:01.102Z,30401.5
2019-05-25T17:55:00.930Z,28734.9
2019-05-25T17:56:00.954Z,27246.7
2019-05-25T17:57:00.928Z,25806.9
2019-05-25T17:58:00.925Z,24577.8
2019-05-25T17:59:01.078Z,23697.7
2019-05-25T18:00:01.028Z,23338.0
2019-05-25T18:01:00.981Z,23701.5
2019-05-25T18:02:00.928Z,24476.1
2019-05-25T18:03:00.927Z,25424.9
2019-05-25T18:04:06.870Z,26391.3
2019-05-25T18:05:00.929Z,27311.4
2019-05-25T18:06:00.928Z,28287.1
2019-05-25T18:07:00.926Z,29297.9
2019-05-25T18:08:00.930Z,30256.1
2019-05-25T18:09:01.100Z,31047.9
2019-05-25T18:10:00.927Z,31655.3
2019-05-25T18:11:00.926Z,32117.5
2019-05-25T18:12:00.929Z,32409.2
2019-05-25T18:13:00.932Z,32536.5
2019-05-25T18:14:01.114Z,32382.1
2019-05-25T18:15:00.947Z,31698.6
2019-05-25T18:16:00.931Z,30325.7
2019-05-25T18:17:00.939Z,28757.3
2019-05-25T18:18:00.928Z,27110.9
2019-05-25T18:19:01.172Z,25578.9
2019-05-25T18:20:00.935Z,24236.9
2019-05-25T18:21:02.212Z,22939.8
2019-05-25T18:22:00.932Z,21612.1
2019-05-25T18:23:00.934Z,20329.9
2019-05-25T18:24:01.095Z,19330.0
2019-05-25T18:25:00.933Z,18428.9
2019-05-25T18:26:00.940Z,17598.3
2019-05-25T18:27:00.932Z,17102.7
2019-05-25T18:28:00.932Z,16819.4
2019-05-25T18:29:01.083Z,16843.3
2019-05-25T18:30:00.933Z,17278.5
2019-05-25T18:31:00.947Z,18113.3
2019-05-25T18:32:00.958Z,18931.9
2019-05-25T18:33:01.000Z,19535.6
2019-05-25T18:34:01.160Z,20026.9
2019-05-25T18:35:00.934Z,20410.1
2019-05-25T18:36:01.181Z,20619.6
2019-05-25T18:37:00.957Z,20790.9
2019-05-25T18:38:00.934Z,20955.8
2019-05-25T18:39:01.089Z,20883.7
2019-05-25T18:40:00.938Z,20670.7
2019-05-25T18:41:00.971Z,20349.5
2019-05-25T18:42:01.180Z,19766.1
2019-05-25T18:43:01.226Z,19066.0
2019-05-25T18:44:01.083Z,18178.6
2019-05-25T18:45:00.938Z,16947.2
2019-05-25T18:46:00.971Z,15399.3
2019-05-25T18:47:00.943Z,13910.7
2019-05-25T18:48:00.936Z,12662.8
2019-05-25T18:49:01.105Z,11515.9
2019-05-25T18:50:00.941Z,10456.7
2019-05-25T18:51:00.968Z,9550.3
2019-05-25T18:52:00.963Z,8787.5
2019-05-25T18:53:00.943Z,8140.9
2019-05-25T18:54:01.088Z,7702.7
2019-05-25T18:55:00.938Z,7478.3
2019-05-25T18:56:00.965Z,7430.9
2019-05-25T18:57:04.085Z,7506.1
2019-05-25T18:58:00.944Z,7632.6
2019-05-25T18:59:01.089Z,7785.0
2019-05-25T19:00:00.949Z,7966.2
2019-05-25T19:01:00.972Z,8111.3
2019-05-25T19:02:00.940Z,8193.2
2019-05-25T19:03:01.766Z,8254.7
2019-05-25T19:04:01.095Z,8221.6
2019-05-25T19:05:00.942Z,8085.3
2019-05-25T19:06:00.946Z,7946.8
2019-05-25T19:07:00.941Z,7775.0
2019-05-25T19:08:00.948Z,7537.0
2019-05-25T19:09:01.127Z,7217.3
2019-05-25T19:10:00.949Z,6794.0
2019-05-25T19:11:00.944Z,6286.3
2019-05-25T19:12:00.945Z,5744.1
2019-05-25T19:13:00.946Z,5203.7
2019-05-25T19:14:01.093Z,4698.5
2019-05-25T19:15:00.967Z,4221.7
2019-05-25T19:16:00.947Z,3806.4
2019-05-25T19:17:00.947Z,3467.1
2019-05-25T19:18:01.173Z,3161.1
2019-05-25T19:19:01.100Z,2899.3
2019-05-25T19:20:00.971Z,2672.6
2019-05-25T19:21:00.945Z,2420.7
2019-05-25T19:22:00.980Z,2166.3
2019-05-25T19:23:00.950Z,1928.9
2019-05-25T19:24:02.209Z,1717.7
2019-05-25T19:25:00.948Z,1554.9
2019-05-25T19:26:00.949Z,1432.4
2019-05-25T19:27:00.971Z,1345.5
2019-05-25T19:28:01.192Z,1292.2
2019-05-25T19:29:04.654Z,1266.9
2019-05-25T19:30:00.952Z,1266.3
2019-05-25T19:31:00.946Z,1279.4
2019-05-25T19:32:00.977Z,1303.6
2019-05-25T19:33:00.953Z,1330.5
2019-05-25T19:34:01.126Z,1351.7
2019-05-25T19:35:00.953Z,1372.1
2019-05-25T19:36:00.948Z,1391.5
2019-05-25T19:37:03.384Z,1408.0
2019-05-25T19:38:01.153Z,1416.3
2019-05-25T19:39:01.389Z,1412.1
2019-05-25T19:40:07.827Z,1398.3
2019-05-25T19:41:00.973Z,1367.1
2019-05-25T19:42:00.971Z,1309.5
2019-05-25T19:43:00.958Z,1249.4
2019-05-25T19:44:01.164Z,1171.9
2019-05-25T19:45:00.950Z,1079.1
2019-05-25T19:46:02.115Z,981.9
2019-05-25T19:47:00.976Z,886.3
2019-05-25T19:48:00.952Z,799.3
2019-05-25T19:49:01.102Z,721.9
2019-05-25T19:50:04.746Z,652.1
2019-05-25T19:51:00.952Z,588.6
2019-05-25T19:52:00.977Z,531.1
2019-05-25T19:53:00.976Z,478.9
2019-05-25T19:54:01.108Z,430.0
2019-05-25T19:55:00.953Z,382.9
2019-05-25T19:56:00.954Z,338.3
2019-05-25T19:57:00.957Z,296.4
2019-05-25T19:58:00.984Z,258.2
2019-05-25T19:59:01.121Z,224.1
2019-05-25T20:00:00.959Z,194.2
2019-05-25T20:01:00.954Z,168.3
2019-05-25T20:02:00.992Z,145.8
2019-05-25T20:03:00.976Z,126.8
2019-05-25T20:04:01.175Z,110.8
2019-05-25T20:05:14.888Z,97.2
2019-05-25T20:06:00.922Z,85.5
2019-05-25T20:07:00.956Z,75.6
2019-05-25T20:08:00.984Z,67.1
2019-05-25T20:09:01.105Z,60.1
2019-05-25T20:10:00.959Z,54.3
2019-05-25T20:11:00.953Z,49.6
2019-05-25T20:12:00.954Z,45.9
2019-05-25T20:13:00.983Z,43.0
2019-05-25T20:14:01.175Z,40.8
2019-05-25T20:15:00.955Z,39.3
2019-05-25T20:16:00.959Z,38.6
2019-05-25T20:17:00.960Z,37.5
2019-05-25T20:18:00.979Z,35.9
2019-05-25T20:19:01.100Z,34.1
2019-05-25T20:20:00.959Z,32.1
2019-05-25T20:21:00.958Z,30.1
2019-05-25T20:22:00.987Z,28.1
2019-05-25T20:23:00.958Z,26.0
2019-05-25T20:24:01.145Z,24.0
2019-05-25T20:25:00.961Z,22.1
2019-05-25T20:26:00.958Z,20.3
2019-05-25T20:27:01.743Z,18.4
2019-05-25T20:28:00.958Z,16.7
2019-05-25T20:29:01.140Z,15.1
2019-05-25T20:30:00.984Z,13.6
2019-05-25T20:31:00.963Z,12.2
2019-05-25T20:32:00.964Z,10.9
2019-05-25T20:33:00.962Z,9.7
2019-05-25T20:34:01.193Z,8.7
2019-05-25T20:35:01.668Z,7.7
2019-05-25T20:36:00.959Z,6.9
2019-05-25T20:37:00.973Z,6.1
2019-05-25T20:38:00.968Z,5.3
2019-05-25T20:39:01.137Z,4.7
2019-05-25T20:40:00.962Z,4.0
2019-05-25T20:41:00.962Z,3.5
2019-05-25T20:42:00.963Z,3.1
2019-05-25T20:43:00.968Z,2.7
2019-05-25T20:44:01.147Z,2.3
2019-05-25T20:45:00.968Z,2.1
2019-05-25T20:46:00.967Z,1.9
2019-05-25T20:47:00.972Z,1.7
2019-05-25T20:48:00.969Z,1.5
2019-05-25T20:49:01.134Z,1.3
2019-05-25T20:50:00.968Z,1.1
2019-05-25T20:51:00.974Z,0.9
2019-05-25T20:53:01.006Z,0.7
2019-05-25T20:54:01.188Z,0.6
2019-05-25T20:55:00.974Z,0.5
2019-05-25T20:57:00.973Z,0.4
2019-05-25T20:58:00.973Z,0.3
2019-05-25T21:00:01.193Z,0.2
2019-05-25T21:01:00.973Z,0.1
